sensor_id;sensor_type;location;lat;lon;timestamp;P1;durP1;ratioP1;P2;durP2;ratioP2
5754;SDS011;2902;42.130;24.732;2023-01-16T00:01:16;27.77;;;16.50;;
5754;SDS011;2902;42.130;24.732;2023-01-16T00:03:44;27.30;;;15.80;;
5754;SDS011;2902;42.130;24.732;2023-01-16T00:06:11;22.07;;;15.13;;
5754;SDS011;2902;42.130;24.732;2023-01-16T00:08:37;24.97;;;15.73;;
5754;SDS011;2902;42.130;24.732;2023-01-16T00:11:06;21.03;;;15.50;;
5754;SDS011;2902;42.130;24.732;2023-01-16T00:13:32;21.77;;;15.37;;
5754;SDS011;2902;42.130;24.732;2023-01-16T00:15:59;21.30;;;13.90;;
5754;SDS011;2902;42.130;24.732;2023-01-16T00:18:26;21.87;;;15.03;;
5754;SDS011;2902;42.130;24.732;2023-01-16T00:20:52;24.20;;;14.87;;
5754;SDS011;2902;42.130;24.732;2023-01-16T00:23:19;22.57;;;14.77;;
5754;SDS011;2902;42.130;24.732;2023-01-16T00:25:46;25.63;;;14.87;;
5754;SDS011;2902;42.130;24.732;2023-01-16T00:28:14;22.40;;;14.53;;
5754;SDS011;2902;42.130;24.732;2023-01-16T00:30:41;24.43;;;15.10;;
5754;SDS011;2902;42.130;24.732;2023-01-16T00:33:09;25.27;;;15.07;;
5754;SDS011;2902;42.130;24.732;2023-01-16T00:35:36;21.93;;;13.57;;
5754;SDS011;2902;42.130;24.732;2023-01-16T00:38:03;21.47;;;15.47;;
5754;SDS011;2902;42.130;24.732;2023-01-16T00:40:30;20.67;;;13.80;;
5754;SDS011;2902;42.130;24.732;2023-01-16T00:42:57;24.37;;;15.57;;
5754;SDS011;2902;42.130;24.732;2023-01-16T00:45:25;21.80;;;14.60;;
5754;SDS011;2902;42.130;24.732;2023-01-16T00:47:52;16.80;;;12.17;;
5754;SDS011;2902;42.130;24.732;2023-01-16T00:50:18;21.43;;;14.13;;
5754;SDS011;2902;42.130;24.732;2023-01-16T00:52:45;22.10;;;14.13;;
5754;SDS011;2902;42.130;24.732;2023-01-16T00:55:12;20.80;;;13.97;;
5754;SDS011;2902;42.130;24.732;2023-01-16T00:57:38;20.20;;;13.13;;
5754;SDS011;2902;42.130;24.732;2023-01-16T01:00:06;19.70;;;13.33;;
5754;SDS011;2902;42.130;24.732;2023-01-16T01:02:35;19.43;;;14.70;;
5754;SDS011;2902;42.130;24.732;2023-01-16T01:05:01;17.23;;;13.53;;
5754;SDS011;2902;42.130;24.732;2023-01-16T01:07:28;20.00;;;15.00;;
5754;SDS011;2902;42.130;24.732;2023-01-16T01:09:55;21.07;;;13.73;;
5754;SDS011;2902;42.130;24.732;2023-01-16T01:12:21;23.43;;;14.73;;
5754;SDS011;2902;42.130;24.732;2023-01-16T01:14:48;20.50;;;15.70;;
5754;SDS011;2902;42.130;24.732;2023-01-16T01:17:15;21.93;;;15.13;;
5754;SDS011;2902;42.130;24.732;2023-01-16T01:19:43;19.83;;;14.50;;
5754;SDS011;2902;42.130;24.732;2023-01-16T01:22:09;22.40;;;15.40;;
5754;SDS011;2902;42.130;24.732;2023-01-16T01:24:36;19.03;;;13.60;;
5754;SDS011;2902;42.130;24.732;2023-01-16T01:27:03;20.03;;;14.20;;
5754;SDS011;2902;42.130;24.732;2023-01-16T01:29:29;21.07;;;13.67;;
5754;SDS011;2902;42.130;24.732;2023-01-16T01:31:56;22.37;;;14.67;;
5754;SDS011;2902;42.130;24.732;2023-01-16T01:34:23;22.27;;;15.70;;
5754;SDS011;2902;42.130;24.732;2023-01-16T01:36:51;24.73;;;15.67;;
5754;SDS011;2902;42.130;24.732;2023-01-16T01:39:17;22.17;;;14.17;;
5754;SDS011;2902;42.130;24.732;2023-01-16T01:41:44;21.77;;;14.73;;
5754;SDS011;2902;42.130;24.732;2023-01-16T01:47:11;20.03;;;14.33;;
5754;SDS011;2902;42.130;24.732;2023-01-16T01:49:38;21.33;;;14.43;;
5754;SDS011;2902;42.130;24.732;2023-01-16T01:52:06;19.40;;;14.43;;
5754;SDS011;2902;42.130;24.732;2023-01-16T01:54:35;21.07;;;15.60;;
5754;SDS011;2902;42.130;24.732;2023-01-16T01:57:06;21.27;;;14.60;;
5754;SDS011;2902;42.130;24.732;2023-01-16T01:59:37;23.50;;;15.43;;
5754;SDS011;2902;42.130;24.732;2023-01-16T02:02:06;26.00;;;15.70;;
5754;SDS011;2902;42.130;24.732;2023-01-16T02:04:39;19.50;;;15.57;;
5754;SDS011;2902;42.130;24.732;2023-01-16T02:07:11;25.83;;;15.70;;
5754;SDS011;2902;42.130;24.732;2023-01-16T02:09:40;21.87;;;15.93;;
5754;SDS011;2902;42.130;24.732;2023-01-16T02:12:08;22.77;;;16.27;;
5754;SDS011;2902;42.130;24.732;2023-01-16T02:14:37;23.43;;;15.80;;
5754;SDS011;2902;42.130;24.732;2023-01-16T02:17:07;22.13;;;16.60;;
5754;SDS011;2902;42.130;24.732;2023-01-16T02:19:54;25.80;;;16.57;;
5754;SDS011;2902;42.130;24.732;2023-01-16T02:25:52;27.90;;;17.17;;
5754;SDS011;2902;42.130;24.732;2023-01-16T02:31:43;22.13;;;16.47;;
5754;SDS011;2902;42.130;24.732;2023-01-16T02:34:20;23.97;;;17.03;;
5754;SDS011;2902;42.130;24.732;2023-01-16T02:37:02;24.00;;;16.93;;
5754;SDS011;2902;42.130;24.732;2023-01-16T02:39:39;30.93;;;19.20;;
5754;SDS011;2902;42.130;24.732;2023-01-16T02:42:14;25.90;;;17.27;;
5754;SDS011;2902;42.130;24.732;2023-01-16T02:44:49;23.03;;;16.90;;
5754;SDS011;2902;42.130;24.732;2023-01-16T02:47:25;24.90;;;18.57;;
5754;SDS011;2902;42.130;24.732;2023-01-16T02:49:59;24.40;;;17.50;;
5754;SDS011;2902;42.130;24.732;2023-01-16T02:52:32;27.93;;;18.10;;
5754;SDS011;2902;42.130;24.732;2023-01-16T02:55:05;23.87;;;18.33;;
5754;SDS011;2902;42.130;24.732;2023-01-16T02:57:37;23.63;;;17.00;;
5754;SDS011;2902;42.130;24.732;2023-01-16T03:00:08;23.90;;;17.17;;
5754;SDS011;2902;42.130;24.732;2023-01-16T03:02:38;23.93;;;17.97;;
5754;SDS011;2902;42.130;24.732;2023-01-16T03:05:06;27.03;;;17.90;;
5754;SDS011;2902;42.130;24.732;2023-01-16T03:07:40;25.57;;;17.97;;
5754;SDS011;2902;42.130;24.732;2023-01-16T03:10:33;27.83;;;18.40;;
5754;SDS011;2902;42.130;24.732;2023-01-16T03:13:12;27.53;;;18.17;;
5754;SDS011;2902;42.130;24.732;2023-01-16T03:15:47;23.93;;;17.13;;
5754;SDS011;2902;42.130;24.732;2023-01-16T03:18:26;26.17;;;17.97;;
5754;SDS011;2902;42.130;24.732;2023-01-16T03:21:01;25.47;;;17.67;;
5754;SDS011;2902;42.130;24.732;2023-01-16T03:23:37;30.57;;;18.07;;
5754;SDS011;2902;42.130;24.732;2023-01-16T03:26:10;26.10;;;18.23;;
5754;SDS011;2902;42.130;24.732;2023-01-16T03:28:43;27.20;;;17.90;;
5754;SDS011;2902;42.130;24.732;2023-01-16T03:31:23;27.47;;;18.27;;
5754;SDS011;2902;42.130;24.732;2023-01-16T03:34:01;29.10;;;18.20;;
5754;SDS011;2902;42.130;24.732;2023-01-16T03:36:38;25.13;;;18.23;;
5754;SDS011;2902;42.130;24.732;2023-01-16T03:39:09;25.50;;;17.10;;
5754;SDS011;2902;42.130;24.732;2023-01-16T03:41:38;24.87;;;17.40;;
5754;SDS011;2902;42.130;24.732;2023-01-16T03:44:07;25.87;;;17.67;;
5754;SDS011;2902;42.130;24.732;2023-01-16T03:46:39;29.20;;;17.93;;
5754;SDS011;2902;42.130;24.732;2023-01-16T03:49:11;31.20;;;19.80;;
5754;SDS011;2902;42.130;24.732;2023-01-16T03:51:41;26.60;;;18.37;;
5754;SDS011;2902;42.130;24.732;2023-01-16T03:54:13;29.10;;;18.60;;
5754;SDS011;2902;42.130;24.732;2023-01-16T03:56:49;26.67;;;17.70;;
5754;SDS011;2902;42.130;24.732;2023-01-16T03:59:20;29.03;;;18.90;;
5754;SDS011;2902;42.130;24.732;2023-01-16T04:01:47;30.10;;;18.83;;
5754;SDS011;2902;42.130;24.732;2023-01-16T04:04:23;29.33;;;18.90;;
5754;SDS011;2902;42.130;24.732;2023-01-16T04:06:54;29.43;;;18.03;;
5754;SDS011;2902;42.130;24.732;2023-01-16T04:09:30;35.43;;;19.40;;
5754;SDS011;2902;42.130;24.732;2023-01-16T04:12:03;30.20;;;18.87;;
5754;SDS011;2902;42.130;24.732;2023-01-16T04:14:32;31.23;;;19.33;;
5754;SDS011;2902;42.130;24.732;2023-01-16T04:17:00;32.63;;;19.23;;
5754;SDS011;2902;42.130;24.732;2023-01-16T04:19:30;25.87;;;17.57;;
5754;SDS011;2902;42.130;24.732;2023-01-16T04:21:58;33.40;;;18.77;;
5754;SDS011;2902;42.130;24.732;2023-01-16T04:24:25;32.43;;;19.57;;
5754;SDS011;2902;42.130;24.732;2023-01-16T04:26:52;30.17;;;19.13;;
5754;SDS011;2902;42.130;24.732;2023-01-16T04:29:19;28.47;;;18.33;;
5754;SDS011;2902;42.130;24.732;2023-01-16T04:31:45;31.90;;;19.33;;
5754;SDS011;2902;42.130;24.732;2023-01-16T04:34:12;32.00;;;19.70;;
5754;SDS011;2902;42.130;24.732;2023-01-16T04:36:40;35.30;;;19.30;;
5754;SDS011;2902;42.130;24.732;2023-01-16T04:39:07;32.70;;;20.63;;
5754;SDS011;2902;42.130;24.732;2023-01-16T04:41:33;35.53;;;21.70;;
5754;SDS011;2902;42.130;24.732;2023-01-16T04:44:04;33.23;;;20.63;;
5754;SDS011;2902;42.130;24.732;2023-01-16T04:46:31;31.70;;;19.00;;
5754;SDS011;2902;42.130;24.732;2023-01-16T04:48:58;36.23;;;20.87;;
5754;SDS011;2902;42.130;24.732;2023-01-16T04:51:25;39.97;;;22.37;;
5754;SDS011;2902;42.130;24.732;2023-01-16T04:53:55;33.37;;;20.77;;
5754;SDS011;2902;42.130;24.732;2023-01-16T04:56:22;37.23;;;20.17;;
5754;SDS011;2902;42.130;24.732;2023-01-16T04:58:49;34.10;;;20.97;;
5754;SDS011;2902;42.130;24.732;2023-01-16T05:01:18;32.60;;;19.73;;
5754;SDS011;2902;42.130;24.732;2023-01-16T05:03:45;31.33;;;20.87;;
5754;SDS011;2902;42.130;24.732;2023-01-16T05:06:11;35.30;;;22.00;;
5754;SDS011;2902;42.130;24.732;2023-01-16T05:08:38;30.20;;;19.40;;
5754;SDS011;2902;42.130;24.732;2023-01-16T05:11:06;35.57;;;21.27;;
5754;SDS011;2902;42.130;24.732;2023-01-16T05:13:33;30.60;;;20.87;;
5754;SDS011;2902;42.130;24.732;2023-01-16T05:16:00;33.23;;;20.33;;
5754;SDS011;2902;42.130;24.732;2023-01-16T05:18:26;34.87;;;21.40;;
5754;SDS011;2902;42.130;24.732;2023-01-16T05:20:53;36.73;;;21.60;;
5754;SDS011;2902;42.130;24.732;2023-01-16T05:23:21;31.90;;;21.23;;
5754;SDS011;2902;42.130;24.732;2023-01-16T05:25:47;32.83;;;21.10;;
5754;SDS011;2902;42.130;24.732;2023-01-16T05:28:15;31.17;;;19.83;;
5754;SDS011;2902;42.130;24.732;2023-01-16T05:30:42;40.13;;;20.63;;
5754;SDS011;2902;42.130;24.732;2023-01-16T05:33:09;32.53;;;21.00;;
5754;SDS011;2902;42.130;24.732;2023-01-16T05:35:36;33.10;;;22.03;;
5754;SDS011;2902;42.130;24.732;2023-01-16T05:38:02;36.53;;;20.07;;
5754;SDS011;2902;42.130;24.732;2023-01-16T05:40:29;32.83;;;20.43;;
5754;SDS011;2902;42.130;24.732;2023-01-16T05:42:56;37.23;;;21.23;;
5754;SDS011;2902;42.130;24.732;2023-01-16T05:45:24;38.83;;;23.47;;
5754;SDS011;2902;42.130;24.732;2023-01-16T05:47:51;41.10;;;23.87;;
5754;SDS011;2902;42.130;24.732;2023-01-16T05:50:18;40.63;;;25.20;;
5754;SDS011;2902;42.130;24.732;2023-01-16T05:52:45;35.77;;;22.37;;
5754;SDS011;2902;42.130;24.732;2023-01-16T05:55:11;31.77;;;22.10;;
5754;SDS011;2902;42.130;24.732;2023-01-16T05:57:38;35.53;;;22.47;;
5754;SDS011;2902;42.130;24.732;2023-01-16T06:00:05;31.43;;;20.40;;
5754;SDS011;2902;42.130;24.732;2023-01-16T06:02:34;31.80;;;20.53;;
5754;SDS011;2902;42.130;24.732;2023-01-16T06:05:01;40.10;;;22.83;;
5754;SDS011;2902;42.130;24.732;2023-01-16T06:07:28;45.07;;;25.93;;
5754;SDS011;2902;42.130;24.732;2023-01-16T06:09:55;52.53;;;27.13;;
5754;SDS011;2902;42.130;24.732;2023-01-16T06:12:22;53.53;;;29.43;;
5754;SDS011;2902;42.130;24.732;2023-01-16T06:14:48;44.60;;;27.27;;
5754;SDS011;2902;42.130;24.732;2023-01-16T06:17:15;49.03;;;26.60;;
5754;SDS011;2902;42.130;24.732;2023-01-16T06:19:45;60.83;;;36.97;;
5754;SDS011;2902;42.130;24.732;2023-01-16T06:22:11;52.30;;;33.13;;
5754;SDS011;2902;42.130;24.732;2023-01-16T06:24:38;47.33;;;26.93;;
5754;SDS011;2902;42.130;24.732;2023-01-16T06:27:05;43.30;;;26.07;;
5754;SDS011;2902;42.130;24.732;2023-01-16T06:29:32;37.87;;;23.40;;
5754;SDS011;2902;42.130;24.732;2023-01-16T06:31:58;49.93;;;31.40;;
5754;SDS011;2902;42.130;24.732;2023-01-16T06:34:25;38.23;;;22.77;;
5754;SDS011;2902;42.130;24.732;2023-01-16T06:36:54;35.50;;;22.20;;
5754;SDS011;2902;42.130;24.732;2023-01-16T06:39:21;31.50;;;21.57;;
5754;SDS011;2902;42.130;24.732;2023-01-16T06:41:48;40.50;;;22.57;;
5754;SDS011;2902;42.130;24.732;2023-01-16T06:44:14;39.90;;;25.07;;
5754;SDS011;2902;42.130;24.732;2023-01-16T06:46:41;29.17;;;17.57;;
5754;SDS011;2902;42.130;24.732;2023-01-16T06:49:08;28.27;;;18.07;;
5754;SDS011;2902;42.130;24.732;2023-01-16T06:51:35;28.63;;;19.63;;
5754;SDS011;2902;42.130;24.732;2023-01-16T06:54:03;24.87;;;18.17;;
5754;SDS011;2902;42.130;24.732;2023-01-16T06:56:30;23.83;;;15.77;;
5754;SDS011;2902;42.130;24.732;2023-01-16T06:58:57;25.93;;;18.03;;
5754;SDS011;2902;42.130;24.732;2023-01-16T07:01:23;27.00;;;18.10;;
5754;SDS011;2902;42.130;24.732;2023-01-16T07:03:50;25.97;;;17.60;;
5754;SDS011;2902;42.130;24.732;2023-01-16T07:06:17;25.03;;;17.90;;
5754;SDS011;2902;42.130;24.732;2023-01-16T07:08:44;25.20;;;19.17;;
5754;SDS011;2902;42.130;24.732;2023-01-16T07:11:12;29.27;;;20.47;;
5754;SDS011;2902;42.130;24.732;2023-01-16T07:13:38;25.90;;;18.90;;
5754;SDS011;2902;42.130;24.732;2023-01-16T07:16:05;29.20;;;18.77;;
5754;SDS011;2902;42.130;24.732;2023-01-16T07:18:50;27.73;;;17.40;;
5754;SDS011;2902;42.130;24.732;2023-01-16T07:21:30;21.77;;;16.77;;
5754;SDS011;2902;42.130;24.732;2023-01-16T07:24:16;23.13;;;15.50;;
5754;SDS011;2902;42.130;24.732;2023-01-16T07:26:47;22.73;;;17.47;;
5754;SDS011;2902;42.130;24.732;2023-01-16T07:29:18;21.57;;;16.53;;
5754;SDS011;2902;42.130;24.732;2023-01-16T07:31:45;28.63;;;18.03;;
5754;SDS011;2902;42.130;24.732;2023-01-16T07:34:12;23.10;;;17.07;;
5754;SDS011;2902;42.130;24.732;2023-01-16T07:36:38;23.57;;;17.07;;
5754;SDS011;2902;42.130;24.732;2023-01-16T07:39:05;25.73;;;16.33;;
5754;SDS011;2902;42.130;24.732;2023-01-16T07:41:32;29.67;;;20.13;;
5754;SDS011;2902;42.130;24.732;2023-01-16T07:44:00;34.20;;;21.23;;
5754;SDS011;2902;42.130;24.732;2023-01-16T07:46:26;41.40;;;24.50;;
5754;SDS011;2902;42.130;24.732;2023-01-16T07:48:53;33.57;;;22.27;;
5754;SDS011;2902;42.130;24.732;2023-01-16T07:51:21;31.77;;;20.17;;
5754;SDS011;2902;42.130;24.732;2023-01-16T07:53:49;28.90;;;20.13;;
5754;SDS011;2902;42.130;24.732;2023-01-16T07:56:16;33.10;;;21.10;;
5754;SDS011;2902;42.130;24.732;2023-01-16T07:58:42;35.53;;;20.40;;
5754;SDS011;2902;42.130;24.732;2023-01-16T08:01:10;32.07;;;19.73;;
5754;SDS011;2902;42.130;24.732;2023-01-16T08:03:37;44.43;;;21.73;;
5754;SDS011;2902;42.130;24.732;2023-01-16T08:06:04;34.83;;;22.90;;
5754;SDS011;2902;42.130;24.732;2023-01-16T08:08:32;37.30;;;21.03;;
5754;SDS011;2902;42.130;24.732;2023-01-16T08:10:59;40.10;;;22.93;;
5754;SDS011;2902;42.130;24.732;2023-01-16T08:13:49;34.83;;;20.47;;
5754;SDS011;2902;42.130;24.732;2023-01-16T08:16:17;34.17;;;20.50;;
5754;SDS011;2902;42.130;24.732;2023-01-16T08:18:43;35.17;;;22.60;;
5754;SDS011;2902;42.130;24.732;2023-01-16T08:21:13;32.30;;;20.30;;
5754;SDS011;2902;42.130;24.732;2023-01-16T08:23:40;34.70;;;19.23;;
5754;SDS011;2902;42.130;24.732;2023-01-16T08:26:07;27.30;;;16.57;;
5754;SDS011;2902;42.130;24.732;2023-01-16T08:28:34;25.63;;;16.97;;
5754;SDS011;2902;42.130;24.732;2023-01-16T08:31:03;30.67;;;18.47;;
5754;SDS011;2902;42.130;24.732;2023-01-16T08:33:33;26.53;;;16.97;;
5754;SDS011;2902;42.130;24.732;2023-01-16T08:36:02;27.07;;;17.00;;
5754;SDS011;2902;42.130;24.732;2023-01-16T08:38:29;23.77;;;15.87;;
5754;SDS011;2902;42.130;24.732;2023-01-16T08:40:56;27.53;;;17.70;;
5754;SDS011;2902;42.130;24.732;2023-01-16T08:43:23;26.77;;;17.13;;
5754;SDS011;2902;42.130;24.732;2023-01-16T08:46:10;23.43;;;15.83;;
5754;SDS011;2902;42.130;24.732;2023-01-16T08:49:01;29.27;;;16.93;;
5754;SDS011;2902;42.130;24.732;2023-01-16T08:51:55;30.83;;;17.00;;
5754;SDS011;2902;42.130;24.732;2023-01-16T08:54:22;27.97;;;16.80;;
5754;SDS011;2902;42.130;24.732;2023-01-16T08:56:49;24.27;;;16.67;;
5754;SDS011;2902;42.130;24.732;2023-01-16T08:59:15;24.03;;;16.97;;
5754;SDS011;2902;42.130;24.732;2023-01-16T09:01:42;27.03;;;16.77;;
5754;SDS011;2902;42.130;24.732;2023-01-16T09:04:10;24.70;;;16.97;;
5754;SDS011;2902;42.130;24.732;2023-01-16T09:06:37;23.17;;;16.23;;
5754;SDS011;2902;42.130;24.732;2023-01-16T09:09:04;25.83;;;16.87;;
5754;SDS011;2902;42.130;24.732;2023-01-16T09:11:31;20.77;;;15.33;;
5754;SDS011;2902;42.130;24.732;2023-01-16T09:14:15;26.17;;;15.83;;
5754;SDS011;2902;42.130;24.732;2023-01-16T09:16:42;24.93;;;17.70;;
5754;SDS011;2902;42.130;24.732;2023-01-16T09:19:09;21.90;;;15.40;;
5754;SDS011;2902;42.130;24.732;2023-01-16T09:21:37;27.70;;;18.60;;
5754;SDS011;2902;42.130;24.732;2023-01-16T09:24:04;28.03;;;18.33;;
5754;SDS011;2902;42.130;24.732;2023-01-16T09:26:30;26.37;;;17.57;;
5754;SDS011;2902;42.130;24.732;2023-01-16T09:28:57;28.93;;;17.73;;
5754;SDS011;2902;42.130;24.732;2023-01-16T09:31:24;26.60;;;17.00;;
5754;SDS011;2902;42.130;24.732;2023-01-16T09:33:51;26.80;;;17.93;;
5754;SDS011;2902;42.130;24.732;2023-01-16T09:36:23;27.20;;;17.23;;
5754;SDS011;2902;42.130;24.732;2023-01-16T09:38:50;27.63;;;18.07;;
5754;SDS011;2902;42.130;24.732;2023-01-16T09:41:18;27.20;;;18.07;;
5754;SDS011;2902;42.130;24.732;2023-01-16T09:43:59;28.73;;;17.13;;
5754;SDS011;2902;42.130;24.732;2023-01-16T09:46:27;26.60;;;16.17;;
5754;SDS011;2902;42.130;24.732;2023-01-16T09:49:01;25.23;;;16.10;;
5754;SDS011;2902;42.130;24.732;2023-01-16T09:51:34;26.50;;;16.83;;
5754;SDS011;2902;42.130;24.732;2023-01-16T09:54:05;23.67;;;16.83;;
5754;SDS011;2902;42.130;24.732;2023-01-16T09:56:56;25.07;;;16.37;;
5754;SDS011;2902;42.130;24.732;2023-01-16T09:59:43;27.83;;;16.87;;
5754;SDS011;2902;42.130;24.732;2023-01-16T10:02:14;27.47;;;17.33;;
5754;SDS011;2902;42.130;24.732;2023-01-16T10:04:46;23.50;;;16.47;;
5754;SDS011;2902;42.130;24.732;2023-01-16T10:10:26;33.17;;;21.93;;
5754;SDS011;2902;42.130;24.732;2023-01-16T10:13:05;33.67;;;20.43;;
5754;SDS011;2902;42.130;24.732;2023-01-16T10:15:43;31.63;;;19.93;;
5754;SDS011;2902;42.130;24.732;2023-01-16T10:18:22;33.37;;;18.23;;
5754;SDS011;2902;42.130;24.732;2023-01-16T10:21:10;33.27;;;18.80;;
5754;SDS011;2902;42.130;24.732;2023-01-16T10:23:52;31.57;;;20.00;;
5754;SDS011;2902;42.130;24.732;2023-01-16T10:26:27;28.90;;;19.87;;
5754;SDS011;2902;42.130;24.732;2023-01-16T10:28:57;33.97;;;20.53;;
5754;SDS011;2902;42.130;24.732;2023-01-16T10:31:33;31.30;;;19.53;;
5754;SDS011;2902;42.130;24.732;2023-01-16T10:34:05;30.83;;;18.33;;
5754;SDS011;2902;42.130;24.732;2023-01-16T10:36:39;28.27;;;18.53;;
5754;SDS011;2902;42.130;24.732;2023-01-16T10:39:11;28.57;;;19.00;;
5754;SDS011;2902;42.130;24.732;2023-01-16T10:41:44;31.33;;;18.20;;
5754;SDS011;2902;42.130;24.732;2023-01-16T10:44:32;31.87;;;19.27;;
5754;SDS011;2902;42.130;24.732;2023-01-16T10:47:18;32.30;;;19.97;;
5754;SDS011;2902;42.130;24.732;2023-01-16T10:50:05;23.50;;;16.63;;
5754;SDS011;2902;42.130;24.732;2023-01-16T10:52:33;24.70;;;17.47;;
5754;SDS011;2902;42.130;24.732;2023-01-16T10:55:02;25.40;;;17.53;;
5754;SDS011;2902;42.130;24.732;2023-01-16T10:57:30;25.57;;;17.60;;
5754;SDS011;2902;42.130;24.732;2023-01-16T10:59:58;24.00;;;16.97;;
5754;SDS011;2902;42.130;24.732;2023-01-16T11:02:30;22.03;;;16.90;;
5754;SDS011;2902;42.130;24.732;2023-01-16T11:05:00;17.80;;;14.43;;
5754;SDS011;2902;42.130;24.732;2023-01-16T11:07:27;21.13;;;16.13;;
5754;SDS011;2902;42.130;24.732;2023-01-16T11:09:56;26.50;;;19.60;;
5754;SDS011;2902;42.130;24.732;2023-01-16T11:12:27;30.80;;;19.20;;
5754;SDS011;2902;42.130;24.732;2023-01-16T11:15:17;26.63;;;17.70;;
5754;SDS011;2902;42.130;24.732;2023-01-16T11:18:17;19.80;;;15.73;;
5754;SDS011;2902;42.130;24.732;2023-01-16T11:20:55;20.37;;;15.70;;
5754;SDS011;2902;42.130;24.732;2023-01-16T11:23:23;21.47;;;16.73;;
5754;SDS011;2902;42.130;24.732;2023-01-16T11:25:53;25.33;;;17.53;;
5754;SDS011;2902;42.130;24.732;2023-01-16T11:28:25;25.33;;;17.90;;
5754;SDS011;2902;42.130;24.732;2023-01-16T11:30:54;26.17;;;17.87;;
5754;SDS011;2902;42.130;24.732;2023-01-16T11:33:23;28.33;;;18.40;;
5754;SDS011;2902;42.130;24.732;2023-01-16T11:35:54;20.43;;;14.97;;
5754;SDS011;2902;42.130;24.732;2023-01-16T11:38:24;19.67;;;15.13;;
5754;SDS011;2902;42.130;24.732;2023-01-16T11:40:54;21.60;;;15.53;;
5754;SDS011;2902;42.130;24.732;2023-01-16T11:43:23;25.87;;;16.80;;
5754;SDS011;2902;42.130;24.732;2023-01-16T11:46:20;28.53;;;17.53;;
5754;SDS011;2902;42.130;24.732;2023-01-16T11:48:58;27.60;;;17.00;;
5754;SDS011;2902;42.130;24.732;2023-01-16T11:51:28;41.50;;;18.30;;
5754;SDS011;2902;42.130;24.732;2023-01-16T11:53:55;27.80;;;17.80;;
5754;SDS011;2902;42.130;24.732;2023-01-16T11:56:34;30.43;;;17.70;;
5754;SDS011;2902;42.130;24.732;2023-01-16T11:59:24;25.13;;;17.40;;
5754;SDS011;2902;42.130;24.732;2023-01-16T12:02:05;26.37;;;17.73;;
5754;SDS011;2902;42.130;24.732;2023-01-16T12:04:45;27.77;;;18.30;;
5754;SDS011;2902;42.130;24.732;2023-01-16T12:07:31;28.53;;;18.00;;
5754;SDS011;2902;42.130;24.732;2023-01-16T12:10:16;24.67;;;16.33;;
5754;SDS011;2902;42.130;24.732;2023-01-16T12:12:56;44.63;;;26.77;;
5754;SDS011;2902;42.130;24.732;2023-01-16T12:15:49;31.40;;;20.07;;
5754;SDS011;2902;42.130;24.732;2023-01-16T12:18:27;31.40;;;19.70;;
5754;SDS011;2902;42.130;24.732;2023-01-16T12:21:01;36.73;;;21.30;;
5754;SDS011;2902;42.130;24.732;2023-01-16T12:23:42;25.10;;;17.47;;
5754;SDS011;2902;42.130;24.732;2023-01-16T12:26:20;44.60;;;18.43;;
5754;SDS011;2902;42.130;24.732;2023-01-16T12:28:57;32.30;;;20.67;;
5754;SDS011;2902;42.130;24.732;2023-01-16T12:31:49;30.23;;;18.67;;
5754;SDS011;2902;42.130;24.732;2023-01-16T12:37:21;29.47;;;17.83;;
5754;SDS011;2902;42.130;24.732;2023-01-16T12:40:03;30.27;;;17.90;;
5754;SDS011;2902;42.130;24.732;2023-01-16T12:42:42;102.50;;;22.87;;
5754;SDS011;2902;42.130;24.732;2023-01-16T12:45:36;37.10;;;19.47;;
5754;SDS011;2902;42.130;24.732;2023-01-16T12:48:16;29.53;;;20.10;;
5754;SDS011;2902;42.130;24.732;2023-01-16T12:51:00;34.60;;;20.17;;
5754;SDS011;2902;42.130;24.732;2023-01-16T12:53:48;29.07;;;19.90;;
5754;SDS011;2902;42.130;24.732;2023-01-16T12:56:38;47.27;;;20.33;;
5754;SDS011;2902;42.130;24.732;2023-01-16T12:59:12;45.07;;;24.23;;
5754;SDS011;2902;42.130;24.732;2023-01-16T13:01:44;45.37;;;24.67;;
5754;SDS011;2902;42.130;24.732;2023-01-16T13:04:17;39.03;;;20.63;;
5754;SDS011;2902;42.130;24.732;2023-01-16T13:06:48;34.47;;;21.13;;
5754;SDS011;2902;42.130;24.732;2023-01-16T13:09:18;83.27;;;32.20;;
5754;SDS011;2902;42.130;24.732;2023-01-16T13:11:55;47.13;;;28.97;;
5754;SDS011;2902;42.130;24.732;2023-01-16T13:14:45;40.73;;;23.57;;
5754;SDS011;2902;42.130;24.732;2023-01-16T13:17:17;39.73;;;23.57;;
5754;SDS011;2902;42.130;24.732;2023-01-16T13:19:49;49.80;;;23.23;;
5754;SDS011;2902;42.130;24.732;2023-01-16T13:22:19;47.93;;;22.07;;
5754;SDS011;2902;42.130;24.732;2023-01-16T13:24:52;39.43;;;21.77;;
5754;SDS011;2902;42.130;24.732;2023-01-16T13:27:23;36.07;;;22.20;;
5754;SDS011;2902;42.130;24.732;2023-01-16T13:29:59;38.33;;;21.87;;
5754;SDS011;2902;42.130;24.732;2023-01-16T13:32:30;40.90;;;21.27;;
5754;SDS011;2902;42.130;24.732;2023-01-16T13:35:01;45.53;;;22.13;;
5754;SDS011;2902;42.130;24.732;2023-01-16T13:37:37;34.60;;;20.80;;
5754;SDS011;2902;42.130;24.732;2023-01-16T13:40:39;39.83;;;23.40;;
5754;SDS011;2902;42.130;24.732;2023-01-16T13:43:18;47.80;;;22.47;;
5754;SDS011;2902;42.130;24.732;2023-01-16T13:46:07;33.37;;;21.17;;
5754;SDS011;2902;42.130;24.732;2023-01-16T13:48:35;37.17;;;21.00;;
5754;SDS011;2902;42.130;24.732;2023-01-16T13:51:06;45.37;;;24.40;;
5754;SDS011;2902;42.130;24.732;2023-01-16T13:53:38;42.33;;;24.17;;
5754;SDS011;2902;42.130;24.732;2023-01-16T13:56:06;41.80;;;23.97;;
5754;SDS011;2902;42.130;24.732;2023-01-16T13:58:39;46.83;;;24.67;;
5754;SDS011;2902;42.130;24.732;2023-01-16T14:01:28;40.53;;;24.13;;
5754;SDS011;2902;42.130;24.732;2023-01-16T14:04:10;50.27;;;24.80;;
5754;SDS011;2902;42.130;24.732;2023-01-16T14:06:58;39.50;;;22.07;;
5754;SDS011;2902;42.130;24.732;2023-01-16T14:10:04;43.63;;;22.30;;
5754;SDS011;2902;42.130;24.732;2023-01-16T14:12:41;34.17;;;21.17;;
5754;SDS011;2902;42.130;24.732;2023-01-16T14:15:18;41.57;;;22.53;;
5754;SDS011;2902;42.130;24.732;2023-01-16T14:18:16;44.47;;;24.33;;
5754;SDS011;2902;42.130;24.732;2023-01-16T14:20:49;49.03;;;29.17;;
5754;SDS011;2902;42.130;24.732;2023-01-16T14:23:30;39.60;;;24.53;;
5754;SDS011;2902;42.130;24.732;2023-01-16T14:26:18;39.27;;;23.80;;
5754;SDS011;2902;42.130;24.732;2023-01-16T14:28:48;46.70;;;24.93;;
5754;SDS011;2902;42.130;24.732;2023-01-16T14:31:22;39.47;;;23.97;;
5754;SDS011;2902;42.130;24.732;2023-01-16T14:33:52;38.40;;;22.23;;
5754;SDS011;2902;42.130;24.732;2023-01-16T14:36:23;36.60;;;22.07;;
5754;SDS011;2902;42.130;24.732;2023-01-16T14:38:54;35.37;;;21.20;;
5754;SDS011;2902;42.130;24.732;2023-01-16T14:41:25;39.33;;;22.17;;
5754;SDS011;2902;42.130;24.732;2023-01-16T14:44:13;41.00;;;23.40;;
5754;SDS011;2902;42.130;24.732;2023-01-16T14:47:22;34.33;;;20.87;;
5754;SDS011;2902;42.130;24.732;2023-01-16T14:50:09;31.47;;;21.30;;
5754;SDS011;2902;42.130;24.732;2023-01-16T14:52:57;29.93;;;20.70;;
5754;SDS011;2902;42.130;24.732;2023-01-16T14:55:59;30.97;;;21.07;;
5754;SDS011;2902;42.130;24.732;2023-01-16T14:58:33;57.80;;;22.63;;
5754;SDS011;2902;42.130;24.732;2023-01-16T15:01:02;48.33;;;22.00;;
5754;SDS011;2902;42.130;24.732;2023-01-16T15:03:59;34.47;;;23.03;;
5754;SDS011;2902;42.130;24.732;2023-01-16T15:06:26;39.67;;;22.17;;
5754;SDS011;2902;42.130;24.732;2023-01-16T15:09:00;40.23;;;20.47;;
5754;SDS011;2902;42.130;24.732;2023-01-16T15:11:31;44.53;;;22.70;;
5754;SDS011;2902;42.130;24.732;2023-01-16T15:14:10;39.80;;;21.33;;
5754;SDS011;2902;42.130;24.732;2023-01-16T15:17:15;38.20;;;23.17;;
5754;SDS011;2902;42.130;24.732;2023-01-16T15:20:07;43.50;;;26.50;;